createdAt,value
2023-02-06T00:29:39.833Z,1031.53
2023-02-06T00:30:20.216Z,1031.54
2023-02-06T00:31:00.858Z,1031.54
2023-02-06T00:31:41.235Z,1031.54
2023-02-06T00:32:21.734Z,1031.51
2023-02-06T00:33:03.179Z,1031.48
2023-02-06T00:33:42.700Z,1031.53
2023-02-06T00:34:23.187Z,1031.5
2023-02-06T00:35:03.792Z,1031.47
2023-02-06T00:35:44.191Z,1031.5
2023-02-06T00:36:24.698Z,1031.48
2023-02-06T00:37:05.174Z,1031.44
2023-02-06T00:37:45.674Z,1031.49
2023-02-06T00:38:26.213Z,1031.52
2023-02-06T00:39:06.753Z,1031.48
2023-02-06T00:39:47.196Z,1031.52
2023-02-06T00:40:27.751Z,1031.54
2023-02-06T00:41:08.287Z,1031.52
2023-02-06T00:41:48.752Z,1031.53
2023-02-06T00:42:29.272Z,1031.51
2023-02-06T00:43:09.766Z,1031.51
2023-02-06T00:43:50.277Z,1031.53
2023-02-06T00:44:30.794Z,1031.47
2023-02-06T00:45:11.422Z,1031.44
2023-02-06T00:45:51.828Z,1031.44
2023-02-06T00:46:32.321Z,1031.48
2023-02-06T00:47:12.829Z,1031.42
2023-02-06T00:47:53.320Z,1031.46
2023-02-06T00:49:14.315Z,1031.48
2023-02-06T00:49:54.787Z,1031.49
2023-02-06T00:50:35.275Z,1031.51
2023-02-06T00:51:15.790Z,1031.56
2023-02-06T00:51:56.272Z,1031.54
2023-02-06T00:52:36.781Z,1031.51
2023-02-06T00:53:17.262Z,1031.52
2023-02-06T00:53:57.808Z,1031.52
2023-02-06T00:54:38.213Z,1031.51
2023-02-06T00:55:18.709Z,1031.5
2023-02-06T00:55:59.202Z,1031.45
2023-02-06T00:56:39.680Z,1031.44
2023-02-06T00:57:20.168Z,1031.45
2023-02-06T00:58:00.643Z,1031.42
2023-02-06T00:59:21.709Z,1031.42
2023-02-06T01:00:02.159Z,1031.39
2023-02-06T01:00:42.664Z,1031.4
2023-02-06T01:01:23.178Z,1031.41
2023-02-06T01:02:03.730Z,1031.41
2023-02-06T01:02:44.178Z,1031.43
2023-02-06T01:03:24.611Z,1031.4
2023-02-06T01:04:05.097Z,1031.42
2023-02-06T01:04:45.611Z,1031.41
2023-02-06T01:05:26.075Z,1031.42
2023-02-06T01:06:06.538Z,1031.4
2023-02-06T01:06:47.043Z,1031.41
2023-02-06T01:07:27.549Z,1031.39
2023-02-06T01:08:08.036Z,1031.43
2023-02-06T01:08:48.497Z,1031.42
2023-02-06T01:09:29.012Z,1031.44
2023-02-06T01:10:09.513Z,1031.45
2023-02-06T01:10:49.995Z,1031.49
2023-02-06T01:11:30.480Z,1031.48
2023-02-06T01:12:10.961Z,1031.48
2023-02-06T01:12:51.476Z,1031.47
2023-02-06T01:13:31.958Z,1031.47
2023-02-06T01:14:12.467Z,1031.47
2023-02-06T01:14:52.948Z,1031.45
2023-02-06T01:15:33.700Z,1031.48
2023-02-06T01:16:54.451Z,1031.45
2023-02-06T01:17:34.921Z,1031.44
2023-02-06T01:18:15.415Z,1031.46
2023-02-06T01:18:55.943Z,1031.4
2023-02-06T01:19:36.462Z,1031.43
2023-02-06T01:20:16.932Z,1031.47
2023-02-06T01:20:57.442Z,1031.48
2023-02-06T01:21:37.922Z,1031.48
2023-02-06T01:22:18.401Z,1031.46
2023-02-06T01:22:59.684Z,1031.5
2023-02-06T01:23:39.413Z,1031.52
2023-02-06T01:24:19.891Z,1031.5
2023-02-06T01:25:00.413Z,1031.49
2023-02-06T01:25:40.861Z,1031.49
2023-02-06T01:27:01.881Z,1031.54
2023-02-06T01:27:42.370Z,1031.54
2023-02-06T01:28:22.848Z,1031.52
2023-02-06T01:29:03.341Z,1031.55
2023-02-06T01:29:43.838Z,1031.55
2023-02-06T01:30:24.403Z,1031.54
2023-02-06T01:31:04.966Z,1031.54
2023-02-06T01:31:45.401Z,1031.54
2023-02-06T01:32:26.463Z,1031.54
2023-02-06T01:33:06.956Z,1031.53
2023-02-06T01:33:47.453Z,1031.5
2023-02-06T01:34:27.882Z,1031.49
2023-02-06T01:35:08.403Z,1031.48
2023-02-06T01:35:48.871Z,1031.47
2023-02-06T01:37:09.872Z,1031.46
2023-02-06T01:37:50.348Z,1031.45
2023-02-06T01:38:30.823Z,1031.43
2023-02-06T01:39:11.305Z,1031.45
2023-02-06T01:39:51.900Z,1031.46
2023-02-06T01:40:32.298Z,1031.48
2023-02-06T01:41:12.770Z,1031.45
2023-02-06T01:41:53.256Z,1031.44
2023-02-06T01:42:33.808Z,1031.49
2023-02-06T01:43:14.335Z,1031.47
2023-02-06T01:43:55.686Z,1031.47
2023-02-06T01:44:35.349Z,1031.46
2023-02-06T01:45:15.851Z,1031.5
2023-02-06T01:45:56.301Z,1031.49
2023-02-06T01:46:36.782Z,1031.5
2023-02-06T01:47:17.270Z,1031.5
2023-02-06T01:47:57.759Z,1031.54
2023-02-06T01:48:38.260Z,1031.54
2023-02-06T01:49:59.219Z,1031.57
2023-02-06T01:50:39.692Z,1031.56
2023-02-06T01:51:20.223Z,1031.58
2023-02-06T01:52:00.729Z,1031.55
2023-02-06T01:52:41.276Z,1031.58
2023-02-06T01:53:21.748Z,1031.6
2023-02-06T01:54:02.272Z,1031.6
2023-02-06T01:54:42.742Z,1031.6
2023-02-06T01:55:23.284Z,1031.6
2023-02-06T01:56:03.719Z,1031.63
2023-02-06T01:56:44.216Z,1031.64
2023-02-06T01:57:24.709Z,1031.63
2023-02-06T01:58:05.192Z,1031.63
2023-02-06T01:58:45.733Z,1031.59
2023-02-06T01:59:26.219Z,1031.59
2023-02-06T02:00:06.722Z,1031.59
2023-02-06T02:00:47.260Z,1031.6
2023-02-06T02:01:27.790Z,1031.6
2023-02-06T02:02:08.260Z,1031.59
2023-02-06T02:02:48.744Z,1031.58
2023-02-06T02:03:29.224Z,1031.6
2023-02-06T02:04:09.720Z,1031.6
2023-02-06T02:04:50.207Z,1031.6
2023-02-06T02:05:30.677Z,1031.62
2023-02-06T02:06:11.167Z,1031.59
2023-02-06T02:07:32.150Z,1031.57
2023-02-06T02:08:12.617Z,1031.57
2023-02-06T02:08:53.104Z,1031.54
2023-02-06T02:09:33.663Z,1031.63
2023-02-06T02:10:14.133Z,1031.6
2023-02-06T02:10:54.650Z,1031.62
2023-02-06T02:11:35.120Z,1031.58
2023-02-06T02:12:15.589Z,1031.6
2023-02-06T02:12:56.077Z,1031.62
2023-02-06T02:13:36.612Z,1031.59
2023-02-06T02:14:17.084Z,1031.6
2023-02-06T02:14:57.592Z,1031.57
2023-02-06T02:15:38.076Z,1031.57
2023-02-06T02:16:18.594Z,1031.58
2023-02-06T02:17:39.549Z,1031.59
2023-02-06T02:18:20.056Z,1031.57
2023-02-06T02:19:00.537Z,1031.57
2023-02-06T02:19:41.021Z,1031.58
2023-02-06T02:20:21.520Z,1031.56
2023-02-06T02:21:01.969Z,1031.57
2023-02-06T02:21:42.462Z,1031.56
2023-02-06T02:22:22.954Z,1031.57
2023-02-06T02:23:03.430Z,1031.55
2023-02-06T02:23:43.920Z,1031.52
2023-02-06T02:24:24.577Z,1031.51
2023-02-06T02:25:04.995Z,1031.55
2023-02-06T02:25:45.455Z,1031.57
2023-02-06T02:26:26.567Z,1031.57
2023-02-06T02:27:07.062Z,1031.59
2023-02-06T02:27:47.550Z,1031.61
2023-02-06T02:28:28.034Z,1031.56
2023-02-06T02:29:08.512Z,1031.57
2023-02-06T02:29:50.014Z,1031.61
2023-02-06T02:30:30.581Z,1031.58
2023-02-06T02:31:11.030Z,1031.55
2023-02-06T02:31:51.575Z,1031.58
2023-02-06T02:32:31.979Z,1031.54
2023-02-06T02:33:12.438Z,1031.54
2023-02-06T02:34:33.453Z,1031.51
2023-02-06T02:35:13.981Z,1031.47
2023-02-06T02:35:54.444Z,1031.5
2023-02-06T02:36:34.973Z,1031.5
2023-02-06T02:37:15.456Z,1031.47
2023-02-06T02:37:55.942Z,1031.49
2023-02-06T02:38:36.402Z,1031.45
2023-02-06T02:39:16.884Z,1031.48
2023-02-06T02:39:57.395Z,1031.5
2023-02-06T02:40:37.853Z,1031.46
2023-02-06T02:41:18.378Z,1031.46
2023-02-06T02:41:58.871Z,1031.47
2023-02-06T02:42:39.348Z,1031.45
2023-02-06T02:43:19.798Z,1031.4
2023-02-06T02:44:00.321Z,1031.45
2023-02-06T02:44:40.861Z,1031.46
2023-02-06T02:45:21.355Z,1031.43
2023-02-06T02:46:01.872Z,1031.43
2023-02-06T02:46:42.323Z,1031.39
2023-02-06T02:47:22.787Z,1031.42
2023-02-06T02:48:03.690Z,1031.43
2023-02-06T02:48:44.170Z,1031.41
2023-02-06T02:49:24.703Z,1031.4
2023-02-06T02:50:05.213Z,1031.4
2023-02-06T02:50:45.710Z,1031.37
2023-02-06T02:51:26.200Z,1031.42
2023-02-06T02:52:06.759Z,1031.38
2023-02-06T02:52:48.221Z,1031.34
2023-02-06T02:53:27.806Z,1031.37
2023-02-06T02:54:08.263Z,1031.39
2023-02-06T02:54:48.781Z,1031.39
2023-02-06T02:55:29.262Z,1031.38
2023-02-06T02:56:09.786Z,1031.36
2023-02-06T02:57:30.811Z,1031.37
2023-02-06T02:58:11.287Z,1031.38
2023-02-06T02:58:51.777Z,1031.35
2023-02-06T02:59:32.253Z,1031.4
2023-02-06T03:00:12.761Z,1031.35
2023-02-06T03:00:54.000Z,1031.4
2023-02-06T03:01:34.545Z,1031.38
2023-02-06T03:02:15.067Z,1031.38
2023-02-06T03:02:55.490Z,1031.39
2023-02-06T03:03:35.962Z,1031.42
2023-02-06T03:04:16.429Z,1031.4
2023-02-06T03:04:56.951Z,1031.4
2023-02-06T03:05:37.661Z,1031.42
2023-02-06T03:06:17.951Z,1031.46
2023-02-06T03:06:58.436Z,1031.48
2023-02-06T03:07:38.906Z,1031.45
2023-02-06T03:08:19.463Z,1031.47
2023-02-06T03:08:59.889Z,1031.49
2023-02-06T03:09:40.370Z,1031.5
2023-02-06T03:10:20.865Z,1031.52
2023-02-06T03:11:01.357Z,1031.53
2023-02-06T03:11:41.902Z,1031.59
2023-02-06T03:12:22.393Z,1031.6
2023-02-06T03:13:02.904Z,1031.6
2023-02-06T03:13:43.397Z,1031.61
2023-02-06T03:14:23.870Z,1031.6
2023-02-06T03:15:04.380Z,1031.58
2023-02-06T03:15:44.862Z,1031.57
2023-02-06T03:16:25.355Z,1031.56
2023-02-06T03:17:06.703Z,1031.59
2023-02-06T03:17:46.409Z,1031.6
2023-02-06T03:18:26.960Z,1031.61
2023-02-06T03:19:07.453Z,1031.63
2023-02-06T03:19:47.944Z,1031.67
2023-02-06T03:20:28.479Z,1031.65
2023-02-06T03:21:08.956Z,1031.64
2023-02-06T03:21:49.436Z,1031.63
2023-02-06T03:22:29.937Z,1031.67
2023-02-06T03:23:10.444Z,1031.67
2023-02-06T03:23:50.946Z,1031.64
2023-02-06T03:24:31.410Z,1031.66
2023-02-06T03:25:11.878Z,1031.71
2023-02-06T03:25:52.405Z,1031.68
2023-02-06T03:26:32.886Z,1031.66
2023-02-06T03:27:13.393Z,1031.71
2023-02-06T03:28:34.323Z,1031.71
2023-02-06T03:29:14.810Z,1031.73
2023-02-06T03:29:55.297Z,1031.73
2023-02-06T03:30:35.786Z,1031.75
2023-02-06T03:31:16.235Z,1031.78
2023-02-06T03:31:56.775Z,1031.75
2023-02-06T03:32:37.216Z,1031.74
2023-02-06T03:33:17.713Z,1031.75
2023-02-06T03:33:58.206Z,1031.73
2023-02-06T03:34:38.743Z,1031.77
2023-02-06T03:35:19.164Z,1031.71
2023-02-06T03:35:59.712Z,1031.64
2023-02-06T03:36:40.102Z,1031.67
2023-02-06T03:37:20.569Z,1031.66
2023-02-06T03:38:41.557Z,1031.66
2023-02-06T03:39:22.065Z,1031.67
2023-02-06T03:40:02.551Z,1031.68
2023-02-06T03:40:43.050Z,1031.65
2023-02-06T03:41:23.561Z,1031.69
2023-02-06T03:42:04.084Z,1031.62
2023-02-06T03:42:44.557Z,1031.65
2023-02-06T03:43:25.121Z,1031.61
2023-02-06T03:44:05.555Z,1031.59
2023-02-06T03:44:46.046Z,1031.63
2023-02-06T03:45:26.622Z,1031.6
2023-02-06T03:46:07.210Z,1031.64
2023-02-06T03:46:47.645Z,1031.62
2023-02-06T03:47:28.141Z,1031.61
2023-02-06T03:48:49.077Z,1031.6
2023-02-06T03:49:29.588Z,1031.64
2023-02-06T03:50:10.084Z,1031.62
2023-02-06T03:50:50.588Z,1031.58
2023-02-06T03:51:31.139Z,1031.6
2023-02-06T03:52:11.562Z,1031.57
2023-02-06T03:52:52.105Z,1031.6
2023-02-06T03:53:32.596Z,1031.58
2023-02-06T03:54:13.062Z,1031.56
2023-02-06T03:54:53.607Z,1031.57
2023-02-06T03:56:14.564Z,1031.53
2023-02-06T03:56:55.119Z,1031.51
2023-02-06T03:57:35.640Z,1031.51
2023-02-06T03:58:16.113Z,1031.5
2023-02-06T03:58:56.871Z,1031.55
2023-02-06T03:59:37.367Z,1031.54
2023-02-06T04:00:17.886Z,1031.58
2023-02-06T04:00:58.402Z,1031.59
2023-02-06T04:01:38.942Z,1031.58
2023-02-06T04:02:19.330Z,1031.63
2023-02-06T04:02:59.794Z,1031.62
2023-02-06T04:03:40.284Z,1031.6
2023-02-06T04:04:20.787Z,1031.62
2023-02-06T04:05:01.309Z,1031.6
2023-02-06T04:05:41.866Z,1031.59
2023-02-06T04:06:22.412Z,1031.59
2023-02-06T04:07:02.933Z,1031.62
2023-02-06T04:07:43.397Z,1031.63
2023-02-06T04:09:04.383Z,1031.6
2023-02-06T04:09:44.890Z,1031.6
2023-02-06T04:10:26.457Z,1031.57
2023-02-06T04:11:05.841Z,1031.55
2023-02-06T04:11:46.306Z,1031.56
2023-02-06T04:12:26.792Z,1031.57
2023-02-06T04:13:07.281Z,1031.55
2023-02-06T04:13:47.743Z,1031.53
2023-02-06T04:14:28.222Z,1031.52
2023-02-06T04:15:08.721Z,1031.53
2023-02-06T04:15:49.251Z,1031.48
2023-02-06T04:16:29.761Z,1031.45
2023-02-06T04:17:10.220Z,1031.38
2023-02-06T04:17:59.753Z,1031.36
2023-02-06T04:18:31.221Z,1031.35
2023-02-06T04:19:11.722Z,1031.34
2023-02-06T04:19:52.234Z,1031.36
2023-02-06T04:20:32.730Z,1031.33
2023-02-06T04:21:13.233Z,1031.38
2023-02-06T04:21:53.717Z,1031.41
2023-02-06T04:22:34.234Z,1031.41
2023-02-06T04:23:14.692Z,1031.44
2023-02-06T04:23:55.177Z,1031.45
2023-02-06T04:24:35.671Z,1031.47
2023-02-06T04:25:16.149Z,1031.5
2023-02-06T04:25:56.630Z,1031.47
2023-02-06T04:26:37.113Z,1031.48
2023-02-06T04:27:17.665Z,1031.45
2023-02-06T04:27:58.151Z,1031.46
2023-02-06T04:28:38.624Z,1031.45
2023-02-06T04:29:19.078Z,1031.46
2023-02-06T04:29:59.592Z,1031.47
2023-02-06T04:30:40.102Z,1031.43
2023-02-06T04:31:20.651Z,1031.45
2023-02-06T04:32:01.127Z,1031.45
2023-02-06T04:32:41.622Z,1031.46
2023-02-06T04:34:02.605Z,1031.43
2023-02-06T04:34:43.069Z,1031.49
2023-02-06T04:35:23.583Z,1031.53
2023-02-06T04:36:04.071Z,1031.49
2023-02-06T04:36:44.551Z,1031.51
2023-02-06T04:37:25.102Z,1031.49
2023-02-06T04:38:05.594Z,1031.51
2023-02-06T04:38:46.066Z,1031.49
2023-02-06T04:39:26.580Z,1031.52
2023-02-06T04:40:07.248Z,1031.51
2023-02-06T04:41:28.230Z,1031.53
2023-02-06T04:42:08.715Z,1031.55
2023-02-06T04:42:49.278Z,1031.58
2023-02-06T04:43:29.767Z,1031.6
2023-02-06T04:44:10.259Z,1031.59
2023-02-06T04:44:50.719Z,1031.61
2023-02-06T04:45:31.233Z,1031.59
2023-02-06T04:46:11.770Z,1031.59
2023-02-06T04:46:52.243Z,1031.62
2023-02-06T04:47:32.744Z,1031.6
2023-02-06T04:48:13.241Z,1031.62
2023-02-06T04:48:53.804Z,1031.6
2023-02-06T04:49:34.255Z,1031.58
2023-02-06T04:50:14.741Z,1031.67
2023-02-06T04:50:55.229Z,1031.68
2023-02-06T04:51:35.735Z,1031.69
2023-02-06T04:52:16.216Z,1031.64
2023-02-06T04:52:56.711Z,1031.66
2023-02-06T04:53:37.264Z,1031.65
2023-02-06T04:54:17.709Z,1031.66
2023-02-06T04:54:58.252Z,1031.67
2023-02-06T04:55:38.739Z,1031.72
2023-02-06T04:56:19.275Z,1031.73
2023-02-06T04:56:59.712Z,1031.71
2023-02-06T04:57:40.219Z,1031.78
2023-02-06T04:59:01.239Z,1031.78
2023-02-06T04:59:41.715Z,1031.81
2023-02-06T05:00:22.331Z,1031.83
2023-02-06T05:01:02.791Z,1031.83
2023-02-06T05:01:43.388Z,1031.86
2023-02-06T05:02:23.827Z,1031.88
2023-02-06T05:03:04.362Z,1031.86
2023-02-06T05:03:44.879Z,1031.9
2023-02-06T05:04:25.351Z,1031.89
2023-02-06T05:05:05.868Z,1031.88
2023-02-06T05:06:26.873Z,1031.91
2023-02-06T05:07:07.388Z,1031.91
2023-02-06T05:07:47.901Z,1031.93
2023-02-06T05:08:28.414Z,1031.89
2023-02-06T05:09:08.925Z,1031.89
2023-02-06T05:09:49.436Z,1031.89
2023-02-06T05:10:29.935Z,1031.88
2023-02-06T05:11:10.450Z,1031.86
2023-02-06T05:11:50.998Z,1031.87
2023-02-06T05:12:31.447Z,1031.9
2023-02-06T05:13:11.947Z,1031.92
2023-02-06T05:13:52.519Z,1031.94
2023-02-06T05:14:32.964Z,1031.94
2023-02-06T05:15:13.486Z,1031.96
2023-02-06T05:15:56.617Z,1031.98
2023-02-06T05:16:37.050Z,1032
2023-02-06T05:17:17.621Z,1031.99
2023-02-06T05:17:58.050Z,1031.99
2023-02-06T05:18:38.587Z,1031.96
2023-02-06T05:19:19.092Z,1031.94
2023-02-06T05:19:59.577Z,1031.95
2023-02-06T05:20:40.248Z,1031.94
2023-02-06T05:21:20.879Z,1031.88
2023-02-06T05:22:01.432Z,1031.87
2023-02-06T05:22:42.226Z,1031.84
2023-02-06T05:23:22.725Z,1031.86
2023-02-06T05:24:03.226Z,1031.87
2023-02-06T05:24:43.713Z,1031.86
2023-02-06T05:25:24.261Z,1031.86
2023-02-06T05:26:04.784Z,1031.91
2023-02-06T05:26:45.373Z,1031.91
2023-02-06T05:27:25.904Z,1031.9
2023-02-06T05:28:06.373Z,1031.93
2023-02-06T05:28:46.925Z,1031.91
2023-02-06T05:29:27.445Z,1032
2023-02-06T05:30:08.015Z,1032.04
2023-02-06T05:31:29.213Z,1032.03
2023-02-06T05:32:09.558Z,1032.01
2023-02-06T05:32:50.051Z,1032.03
2023-02-06T05:33:30.543Z,1031.98
2023-02-06T05:34:11.065Z,1031.98
2023-02-06T05:34:51.613Z,1031.98
2023-02-06T05:35:32.145Z,1032.01
2023-02-06T05:38:46.602Z,1031.81
2023-02-06T05:39:27.359Z,1031.78
2023-02-06T05:40:07.851Z,1031.82
2023-02-06T05:40:48.314Z,1031.8
2023-02-06T05:41:28.826Z,1031.81
2023-02-06T05:42:09.286Z,1031.82
2023-02-06T05:42:49.763Z,1031.8
2023-02-06T05:43:30.306Z,1031.81
2023-02-06T05:44:10.794Z,1031.85
2023-02-06T05:44:51.285Z,1031.84
2023-02-06T05:45:31.834Z,1031.83
2023-02-06T05:46:12.633Z,1031.81
2023-02-06T05:46:53.057Z,1031.76
2023-02-06T05:47:33.562Z,1031.8
2023-02-06T05:48:14.034Z,1031.82
2023-02-06T05:48:54.513Z,1031.79
2023-02-06T05:49:35.057Z,1031.82
2023-02-06T05:50:15.601Z,1031.79
2023-02-06T05:51:36.657Z,1031.79
2023-02-06T06:32:18.011Z,1031.5
2023-02-06T06:32:58.241Z,1031.5
2023-02-06T06:33:38.763Z,1031.48
2023-02-06T06:34:19.527Z,1031.5
2023-02-06T06:35:00.116Z,1031.5
2023-02-06T06:35:40.622Z,1031.5
2023-02-06T06:36:21.052Z,1031.48
2023-02-06T06:37:01.585Z,1031.51
2023-02-06T06:37:42.172Z,1031.53
2023-02-06T06:38:22.699Z,1031.55
2023-02-06T06:39:03.506Z,1031.53
2023-02-06T06:39:44.002Z,1031.54
2023-02-06T06:40:24.675Z,1031.55
2023-02-06T06:41:05.134Z,1031.52
2023-02-06T06:41:45.648Z,1031.61
2023-02-06T06:42:26.185Z,1031.57
2023-02-06T06:45:24.982Z,1031.71
2023-02-06T06:46:05.471Z,1031.7
2023-02-06T06:46:45.823Z,1031.68
2023-02-06T06:47:26.583Z,1031.69
2023-02-06T06:48:07.947Z,1031.69
2023-02-06T06:48:48.467Z,1031.7
2023-02-06T06:49:29.344Z,1031.69
2023-02-06T06:50:09.978Z,1031.7
2023-02-06T06:50:50.499Z,1031.68
2023-02-06T06:51:31.416Z,1031.68
2023-02-06T06:52:24.285Z,1031.68
2023-02-06T06:52:55.602Z,1031.7
2023-02-06T06:53:36.216Z,1031.7
2023-02-06T06:54:57.398Z,1031.7
2023-02-06T06:55:38.181Z,1031.62
2023-02-06T06:56:18.481Z,1031.63
2023-02-06T06:56:59.192Z,1031.68
2023-02-06T06:57:39.638Z,1031.67
2023-02-06T06:58:20.368Z,1031.66
2023-02-06T06:59:07.340Z,1031.62
2023-02-06T06:59:47.948Z,1031.69
2023-02-06T07:00:28.516Z,1031.64
2023-02-06T07:01:09.049Z,1031.64
2023-02-06T07:02:30.203Z,1031.69
2023-02-06T07:03:10.668Z,1031.69
2023-02-06T07:03:51.222Z,1031.62
2023-02-06T07:04:32.393Z,1031.65
2023-02-06T07:05:12.858Z,1031.63
2023-02-06T07:05:53.439Z,1031.58
2023-02-06T07:06:33.959Z,1031.6
2023-02-06T07:09:49.095Z,1031.57
2023-02-06T07:10:29.888Z,1031.6
2023-02-06T07:11:10.442Z,1031.59
2023-02-06T07:11:51.097Z,1031.57
2023-02-06T07:12:32.671Z,1031.57
2023-02-06T07:13:19.622Z,1031.54
2023-02-06T07:14:00.243Z,1031.56
2023-02-06T07:14:40.886Z,1031.6
2023-02-06T07:15:22.432Z,1031.54
2023-02-06T07:16:03.361Z,1031.59
2023-02-06T07:16:43.928Z,1031.58
2023-02-06T07:17:24.760Z,1031.62
2023-02-06T07:18:06.868Z,1031.56
2023-02-06T07:18:47.459Z,1031.54
2023-02-06T07:19:27.940Z,1031.55
2023-02-06T07:20:08.561Z,1031.53
2023-02-06T07:20:49.623Z,1031.51
2023-02-06T07:21:33.109Z,1031.48
2023-02-06T07:22:13.665Z,1031.5
2023-02-06T07:22:54.253Z,1031.48
2023-02-06T07:26:10.048Z,1031.49
2023-02-06T07:26:50.586Z,1031.46
2023-02-06T07:27:31.240Z,1031.48
2023-02-06T07:28:11.806Z,1031.47
2023-02-06T07:28:52.388Z,1031.44
2023-02-06T07:29:33.146Z,1031.48
2023-02-06T07:30:13.989Z,1031.44
2023-02-06T07:30:55.210Z,1031.46
2023-02-06T07:31:35.841Z,1031.45
2023-02-06T07:32:16.448Z,1031.44
2023-02-06T07:32:56.940Z,1031.49
2023-02-06T07:33:39.159Z,1031.45
2023-02-06T07:34:20.546Z,1031.47
2023-02-06T07:35:01.017Z,1031.45
2023-02-06T07:35:41.862Z,1031.49
2023-02-06T07:36:24.204Z,1031.47
2023-02-06T07:37:08.751Z,1031.5
2023-02-06T07:37:53.327Z,1031.49
2023-02-06T07:38:35.275Z,1031.51
2023-02-06T07:39:16.799Z,1031.55
2023-02-06T07:39:57.312Z,1031.57
2023-02-06T07:40:44.873Z,1031.55
2023-02-06T07:41:18.396Z,1031.55
2023-02-06T07:43:32.749Z,1031.58
2023-02-06T07:44:13.559Z,1031.55
2023-02-06T07:44:54.297Z,1031.55
2023-02-06T07:45:35.234Z,1031.61
2023-02-06T07:46:16.383Z,1031.6
2023-02-06T07:49:52.470Z,1031.5
2023-02-06T07:50:32.484Z,1031.5
2023-02-06T07:51:13.016Z,1031.47
2023-02-06T07:54:12.720Z,1031.48
2023-02-06T07:54:55.062Z,1031.52
2023-02-06T07:55:37.583Z,1031.55
2023-02-06T07:56:18.706Z,1031.55
2023-02-06T07:56:59.812Z,1031.55
2023-02-06T07:57:40.983Z,1031.57
2023-02-06T07:58:22.446Z,1031.56
2023-02-06T07:59:03.727Z,1031.6
2023-02-06T07:59:45.353Z,1031.64
2023-02-06T08:00:26.174Z,1031.63
2023-02-06T08:01:08.187Z,1031.63
2023-02-06T08:01:49.520Z,1031.63
2023-02-06T08:05:28.181Z,1031.57
2023-02-06T08:06:08.778Z,1031.56
2023-02-06T08:06:49.380Z,1031.55
2023-02-06T08:07:29.993Z,1031.56
2023-02-06T08:08:10.540Z,1031.54
2023-02-06T08:08:52.798Z,1031.55
2023-02-06T08:09:33.369Z,1031.58
2023-02-06T08:10:14.091Z,1031.58
2023-02-06T08:10:54.628Z,1031.56
2023-02-06T08:11:40.671Z,1031.56
2023-02-06T08:12:21.154Z,1031.57
2023-02-06T08:13:02.690Z,1031.57
2023-02-06T08:13:43.011Z,1031.53
2023-02-06T08:14:23.608Z,1031.56
2023-02-06T08:15:05.374Z,1031.59
2023-02-06T08:15:45.947Z,1031.6
2023-02-06T08:16:26.551Z,1031.6
2023-02-06T08:19:41.116Z,1031.63
2023-02-06T08:20:21.807Z,1031.62
2023-02-06T08:21:02.635Z,1031.58
2023-02-06T08:21:45.141Z,1031.62
2023-02-06T08:22:26.776Z,1031.6
2023-02-06T08:23:08.910Z,1031.56
2023-02-06T08:23:49.581Z,1031.5
2023-02-06T08:24:32.277Z,1031.54
2023-02-06T08:27:46.113Z,1031.47
2023-02-06T08:28:27.891Z,1031.49
2023-02-06T08:29:08.897Z,1031.48
2023-02-06T08:29:50.653Z,1031.43
2023-02-06T08:30:33.204Z,1031.54
2023-02-06T08:31:14.152Z,1031.5
2023-02-06T08:31:54.508Z,1031.52
2023-02-06T08:32:36.011Z,1031.49
2023-02-06T08:33:17.048Z,1031.53
2023-02-06T08:33:57.798Z,1031.54
2023-02-06T08:34:39.306Z,1031.53
2023-02-06T08:35:19.918Z,1031.55
2023-02-06T08:36:02.278Z,1031.59
2023-02-06T08:39:22.758Z,1031.52
2023-02-06T08:42:42.317Z,1031.59
2023-02-06T08:43:22.134Z,1031.56
2023-02-06T08:44:02.798Z,1031.57
2023-02-06T08:44:43.864Z,1031.54
2023-02-06T08:45:24.539Z,1031.55
2023-02-06T08:46:05.067Z,1031.57
2023-02-06T08:47:26.059Z,1031.57
2023-02-06T08:50:07.559Z,1031.64
2023-02-06T08:50:49.396Z,1031.66
2023-02-06T08:51:31.525Z,1031.73
2023-02-06T08:52:12.168Z,1031.71
2023-02-06T08:52:54.349Z,1031.71
2023-02-06T08:53:35.044Z,1031.73
2023-02-06T08:56:52.503Z,1031.57
2023-02-06T08:57:34.217Z,1031.56
2023-02-06T08:58:14.775Z,1031.54
2023-02-06T09:00:28.334Z,1031.53
2023-02-06T09:01:08.789Z,1031.54
2023-02-06T09:01:49.448Z,1031.53
2023-02-06T09:02:29.986Z,1031.56
2023-02-06T09:03:10.562Z,1031.55
2023-02-06T09:03:51.129Z,1031.56
2023-02-06T09:04:31.568Z,1031.52
2023-02-06T09:05:12.178Z,1031.65
2023-02-06T09:05:54.050Z,1031.6
2023-02-06T09:06:33.285Z,1031.6
2023-02-06T09:07:15.726Z,1031.66
2023-02-06T09:07:55.801Z,1031.69
2023-02-06T09:08:36.327Z,1031.68
2023-02-06T09:09:16.949Z,1031.66
2023-02-06T09:09:58.272Z,1031.68
2023-02-06T09:10:39.800Z,1031.73
2023-02-06T09:11:20.361Z,1031.67
2023-02-06T09:12:01.036Z,1031.7
2023-02-06T09:13:22.689Z,1031.71
2023-02-06T09:14:03.218Z,1031.72
2023-02-06T09:14:43.785Z,1031.71
2023-02-06T09:15:24.341Z,1031.74
2023-02-06T09:16:04.908Z,1031.79
2023-02-06T09:16:45.378Z,1031.7
2023-02-06T09:20:14.629Z,1031.73
2023-02-06T09:20:55.019Z,1031.76
2023-02-06T09:21:35.557Z,1031.76
2023-02-06T09:22:16.088Z,1031.77
2023-02-06T09:22:56.689Z,1031.78
2023-02-06T09:23:37.876Z,1031.81
2023-02-06T09:24:18.490Z,1031.77
2023-02-06T09:24:58.999Z,1031.8
2023-02-06T09:25:39.469Z,1031.84
2023-02-06T09:26:20.017Z,1031.85
2023-02-06T09:27:01.128Z,1031.86
2023-02-06T09:27:41.052Z,1031.82
2023-02-06T09:28:21.657Z,1031.82
2023-02-06T09:29:02.142Z,1031.86
2023-02-06T09:29:42.722Z,1031.84
2023-02-06T09:30:23.347Z,1031.84
2023-02-06T09:31:03.924Z,1031.81
2023-02-06T09:31:44.487Z,1031.8
2023-02-06T09:32:25.008Z,1031.81
2023-02-06T09:34:55.041Z,1031.78
2023-02-06T09:37:07.502Z,1031.73
2023-02-06T09:37:47.787Z,1031.7
2023-02-06T09:38:28.381Z,1031.68
2023-02-06T09:39:09.117Z,1031.68
2023-02-06T09:39:50.270Z,1031.68
2023-02-06T09:40:30.976Z,1031.63
2023-02-06T09:41:11.545Z,1031.63
2023-02-06T09:41:53.061Z,1031.62
2023-02-06T09:42:33.705Z,1031.64
2023-02-06T09:43:14.193Z,1031.62
2023-02-06T09:46:23.381Z,1031.68
2023-02-06T09:47:03.826Z,1031.66
2023-02-06T09:47:46.418Z,1031.64
2023-02-06T09:48:24.947Z,1031.65
2023-02-06T09:49:06.296Z,1031.62
2023-02-06T09:49:47.667Z,1031.6
2023-02-06T09:50:28.303Z,1031.64
2023-02-06T09:51:08.941Z,1031.63
2023-02-06T09:51:49.569Z,1031.67
2023-02-06T09:52:30.160Z,1031.67
2023-02-06T09:53:10.765Z,1031.66
2023-02-06T09:53:51.284Z,1031.65
2023-02-06T09:54:31.957Z,1031.64
2023-02-06T09:55:12.502Z,1031.64
2023-02-06T09:55:53.085Z,1031.64
2023-02-06T09:56:34.415Z,1031.62
2023-02-06T09:57:55.520Z,1031.61
2023-02-06T09:58:36.189Z,1031.61
2023-02-06T09:59:17.653Z,1031.58
2023-02-06T09:59:58.330Z,1031.6
2023-02-06T10:00:38.947Z,1031.58
2023-02-06T10:01:19.550Z,1031.63
2023-02-06T10:02:00.141Z,1031.66
2023-02-06T10:02:40.616Z,1031.7
2023-02-06T10:03:21.857Z,1031.72
2023-02-06T10:04:02.366Z,1031.72
2023-02-06T10:04:43.156Z,1031.78
2023-02-06T10:08:02.129Z,1031.79
2023-02-06T10:08:48.297Z,1031.82
2023-02-06T10:09:26.138Z,1031.83
2023-02-06T10:13:31.266Z,1031.86
2023-02-06T10:14:11.977Z,1031.89
2023-02-06T10:14:52.422Z,1031.87
2023-02-06T10:15:33.199Z,1031.85
2023-02-06T10:18:31.888Z,1031.77
2023-02-06T10:19:14.885Z,1031.72
2023-02-06T10:19:55.486Z,1031.74
2023-02-06T10:20:36.488Z,1031.7
2023-02-06T10:21:17.038Z,1031.71
2023-02-06T10:21:57.627Z,1031.7
2023-02-06T10:22:38.268Z,1031.72
2023-02-06T10:23:18.921Z,1031.73
2023-02-06T10:26:17.630Z,1031.68
2023-02-06T10:26:58.249Z,1031.71
2023-02-06T10:27:38.925Z,1031.73
2023-02-06T10:28:19.420Z,1031.69
2023-02-06T10:28:59.895Z,1031.71
2023-02-06T10:29:40.523Z,1031.67
2023-02-06T10:30:21.519Z,1031.66
2023-02-06T10:31:01.799Z,1031.69
2023-02-06T10:31:42.185Z,1031.68
2023-02-06T10:32:22.855Z,1031.71
2023-02-06T10:33:03.373Z,1031.72
2023-02-06T10:33:43.939Z,1031.74
2023-02-06T10:34:24.509Z,1031.74
2023-02-06T10:35:05.056Z,1031.68
2023-02-06T10:35:45.688Z,1031.71
2023-02-06T10:36:26.314Z,1031.71